sensor_id;sensor_type;location;lat;lon;timestamp;P1;durP1;ratioP1;P2;durP2;ratioP2
10847;SDS011;5477;48.806;9.154;2023-04-25T00:01:36;1.50;;;1.27;;
10847;SDS011;5477;48.806;9.154;2023-04-25T00:04:04;1.73;;;1.50;;
10847;SDS011;5477;48.806;9.154;2023-04-25T00:06:33;2.00;;;1.30;;
10847;SDS011;5477;48.806;9.154;2023-04-25T00:09:02;1.37;;;1.27;;
10847;SDS011;5477;48.806;9.154;2023-04-25T00:11:34;1.37;;;1.27;;
10847;SDS011;5477;48.806;9.154;2023-04-25T00:14:03;1.40;;;1.23;;
10847;SDS011;5477;48.806;9.154;2023-04-25T00:16:31;1.10;;;1.00;;
10847;SDS011;5477;48.806;9.154;2023-04-25T00:19:01;2.30;;;1.30;;
10847;SDS011;5477;48.806;9.154;2023-04-25T00:21:30;1.70;;;1.30;;
10847;SDS011;5477;48.806;9.154;2023-04-25T00:23:59;3.03;;;1.30;;
10847;SDS011;5477;48.806;9.154;2023-04-25T00:26:27;1.57;;;1.40;;
10847;SDS011;5477;48.806;9.154;2023-04-25T00:28:56;1.87;;;1.40;;
10847;SDS011;5477;48.806;9.154;2023-04-25T00:31:24;3.10;;;1.20;;
10847;SDS011;5477;48.806;9.154;2023-04-25T00:33:53;1.37;;;1.27;;
10847;SDS011;5477;48.806;9.154;2023-04-25T00:36:21;3.43;;;1.33;;
10847;SDS011;5477;48.806;9.154;2023-04-25T00:38:49;1.43;;;1.23;;
10847;SDS011;5477;48.806;9.154;2023-04-25T00:41:17;2.23;;;1.63;;
10847;SDS011;5477;48.806;9.154;2023-04-25T00:43:46;1.73;;;1.57;;
10847;SDS011;5477;48.806;9.154;2023-04-25T00:46:17;1.70;;;1.30;;
10847;SDS011;5477;48.806;9.154;2023-04-25T00:48:46;1.67;;;1.23;;
10847;SDS011;5477;48.806;9.154;2023-04-25T00:51:15;2.00;;;1.60;;
10847;SDS011;5477;48.806;9.154;2023-04-25T00:53:46;1.97;;;1.57;;
10847;SDS011;5477;48.806;9.154;2023-04-25T00:56:17;2.47;;;1.40;;
10847;SDS011;5477;48.806;9.154;2023-04-25T00:58:46;1.57;;;1.33;;
10847;SDS011;5477;48.806;9.154;2023-04-25T01:01:14;1.73;;;1.23;;
10847;SDS011;5477;48.806;9.154;2023-04-25T01:03:44;2.50;;;1.30;;
10847;SDS011;5477;48.806;9.154;2023-04-25T01:06:17;2.13;;;1.40;;
10847;SDS011;5477;48.806;9.154;2023-04-25T01:08:45;3.20;;;1.53;;
10847;SDS011;5477;48.806;9.154;2023-04-25T01:11:13;2.10;;;1.27;;
10847;SDS011;5477;48.806;9.154;2023-04-25T01:13:41;2.27;;;1.40;;
10847;SDS011;5477;48.806;9.154;2023-04-25T01:16:08;2.77;;;1.53;;
10847;SDS011;5477;48.806;9.154;2023-04-25T01:18:38;2.63;;;1.40;;
10847;SDS011;5477;48.806;9.154;2023-04-25T01:21:09;1.37;;;1.17;;
10847;SDS011;5477;48.806;9.154;2023-04-25T01:23:38;1.50;;;1.40;;
10847;SDS011;5477;48.806;9.154;2023-04-25T01:26:07;2.37;;;1.40;;
10847;SDS011;5477;48.806;9.154;2023-04-25T01:28:37;1.60;;;1.47;;
10847;SDS011;5477;48.806;9.154;2023-04-25T01:31:08;2.13;;;1.70;;
10847;SDS011;5477;48.806;9.154;2023-04-25T01:33:37;3.13;;;1.80;;
10847;SDS011;5477;48.806;9.154;2023-04-25T01:36:05;3.50;;;1.40;;
10847;SDS011;5477;48.806;9.154;2023-04-25T01:38:35;2.27;;;1.80;;
10847;SDS011;5477;48.806;9.154;2023-04-25T01:41:03;4.77;;;1.90;;
10847;SDS011;5477;48.806;9.154;2023-04-25T01:43:32;2.20;;;1.53;;
10847;SDS011;5477;48.806;9.154;2023-04-25T01:46:00;1.70;;;1.50;;
10847;SDS011;5477;48.806;9.154;2023-04-25T01:48:29;2.87;;;1.80;;
10847;SDS011;5477;48.806;9.154;2023-04-25T01:50:57;2.90;;;1.50;;
10847;SDS011;5477;48.806;9.154;2023-04-25T01:53:27;2.10;;;1.53;;
10847;SDS011;5477;48.806;9.154;2023-04-25T01:55:57;1.83;;;1.50;;
10847;SDS011;5477;48.806;9.154;2023-04-25T01:58:29;2.17;;;1.70;;
10847;SDS011;5477;48.806;9.154;2023-04-25T02:01:12;1.90;;;1.43;;
10847;SDS011;5477;48.806;9.154;2023-04-25T02:03:46;1.50;;;1.40;;
10847;SDS011;5477;48.806;9.154;2023-04-25T02:06:30;3.80;;;1.90;;
10847;SDS011;5477;48.806;9.154;2023-04-25T02:08:58;2.90;;;1.70;;
10847;SDS011;5477;48.806;9.154;2023-04-25T02:11:27;2.07;;;1.77;;
10847;SDS011;5477;48.806;9.154;2023-04-25T02:14:14;4.03;;;2.00;;
10847;SDS011;5477;48.806;9.154;2023-04-25T02:16:52;2.23;;;1.70;;
10847;SDS011;5477;48.806;9.154;2023-04-25T02:19:20;3.93;;;1.80;;
10847;SDS011;5477;48.806;9.154;2023-04-25T02:21:48;2.07;;;1.70;;
10847;SDS011;5477;48.806;9.154;2023-04-25T02:24:16;2.50;;;1.80;;
10847;SDS011;5477;48.806;9.154;2023-04-25T02:26:45;1.67;;;1.57;;
10847;SDS011;5477;48.806;9.154;2023-04-25T02:29:15;3.47;;;1.80;;
10847;SDS011;5477;48.806;9.154;2023-04-25T02:31:43;3.37;;;1.70;;
10847;SDS011;5477;48.806;9.154;2023-04-25T02:34:12;1.93;;;1.70;;
10847;SDS011;5477;48.806;9.154;2023-04-25T02:36:39;2.80;;;1.70;;
10847;SDS011;5477;48.806;9.154;2023-04-25T02:39:07;2.20;;;1.70;;
10847;SDS011;5477;48.806;9.154;2023-04-25T02:41:36;1.93;;;1.63;;
10847;SDS011;5477;48.806;9.154;2023-04-25T02:44:05;2.27;;;1.50;;
10847;SDS011;5477;48.806;9.154;2023-04-25T02:46:33;4.00;;;1.70;;
10847;SDS011;5477;48.806;9.154;2023-04-25T02:49:05;2.60;;;1.70;;
10847;SDS011;5477;48.806;9.154;2023-04-25T02:51:34;3.90;;;1.90;;
10847;SDS011;5477;48.806;9.154;2023-04-25T02:54:02;3.03;;;1.70;;
10847;SDS011;5477;48.806;9.154;2023-04-25T02:56:34;2.50;;;1.90;;
10847;SDS011;5477;48.806;9.154;2023-04-25T02:59:07;2.53;;;1.70;;
10847;SDS011;5477;48.806;9.154;2023-04-25T03:01:35;3.47;;;1.77;;
10847;SDS011;5477;48.806;9.154;2023-04-25T03:04:03;3.80;;;1.80;;
10847;SDS011;5477;48.806;9.154;2023-04-25T03:06:31;2.83;;;1.77;;
10847;SDS011;5477;48.806;9.154;2023-04-25T03:08:59;3.73;;;1.70;;
10847;SDS011;5477;48.806;9.154;2023-04-25T03:11:28;2.20;;;1.77;;
10847;SDS011;5477;48.806;9.154;2023-04-25T03:13:56;2.40;;;1.70;;
10847;SDS011;5477;48.806;9.154;2023-04-25T03:16:25;3.33;;;1.90;;
10847;SDS011;5477;48.806;9.154;2023-04-25T03:18:54;2.13;;;1.90;;
10847;SDS011;5477;48.806;9.154;2023-04-25T03:21:22;2.87;;;1.77;;
10847;SDS011;5477;48.806;9.154;2023-04-25T03:23:50;2.27;;;1.90;;
10847;SDS011;5477;48.806;9.154;2023-04-25T03:26:18;2.77;;;1.90;;
10847;SDS011;5477;48.806;9.154;2023-04-25T03:28:47;1.83;;;1.50;;
10847;SDS011;5477;48.806;9.154;2023-04-25T03:31:16;2.73;;;1.80;;
10847;SDS011;5477;48.806;9.154;2023-04-25T03:33:45;2.23;;;2.03;;
10847;SDS011;5477;48.806;9.154;2023-04-25T03:36:13;4.67;;;2.10;;
10847;SDS011;5477;48.806;9.154;2023-04-25T03:38:42;3.77;;;2.23;;
10847;SDS011;5477;48.806;9.154;2023-04-25T03:41:12;3.33;;;2.00;;
10847;SDS011;5477;48.806;9.154;2023-04-25T03:43:44;2.47;;;1.83;;
10847;SDS011;5477;48.806;9.154;2023-04-25T03:46:12;2.23;;;1.97;;
10847;SDS011;5477;48.806;9.154;2023-04-25T03:48:41;2.83;;;1.80;;
10847;SDS011;5477;48.806;9.154;2023-04-25T03:51:17;3.00;;;2.27;;
10847;SDS011;5477;48.806;9.154;2023-04-25T03:53:44;3.90;;;2.13;;
10847;SDS011;5477;48.806;9.154;2023-04-25T03:56:18;2.67;;;2.00;;
10847;SDS011;5477;48.806;9.154;2023-04-25T03:58:53;1.80;;;1.70;;
10847;SDS011;5477;48.806;9.154;2023-04-25T04:01:27;2.87;;;1.70;;
10847;SDS011;5477;48.806;9.154;2023-04-25T04:03:55;4.63;;;1.97;;
10847;SDS011;5477;48.806;9.154;2023-04-25T04:06:26;2.30;;;2.00;;
10847;SDS011;5477;48.806;9.154;2023-04-25T04:09:02;3.30;;;2.20;;
10847;SDS011;5477;48.806;9.154;2023-04-25T04:11:34;2.97;;;1.90;;
10847;SDS011;5477;48.806;9.154;2023-04-25T04:14:04;3.27;;;2.17;;
10847;SDS011;5477;48.806;9.154;2023-04-25T04:16:33;2.20;;;1.90;;
10847;SDS011;5477;48.806;9.154;2023-04-25T04:19:01;2.40;;;1.90;;
10847;SDS011;5477;48.806;9.154;2023-04-25T04:21:31;3.00;;;1.90;;
10847;SDS011;5477;48.806;9.154;2023-04-25T04:24:00;3.20;;;2.00;;
10847;SDS011;5477;48.806;9.154;2023-04-25T04:26:33;3.10;;;1.80;;
10847;SDS011;5477;48.806;9.154;2023-04-25T04:29:10;3.00;;;1.80;;
10847;SDS011;5477;48.806;9.154;2023-04-25T04:31:57;2.97;;;1.93;;
10847;SDS011;5477;48.806;9.154;2023-04-25T04:34:31;2.80;;;2.00;;
10847;SDS011;5477;48.806;9.154;2023-04-25T04:37:04;4.43;;;1.90;;
10847;SDS011;5477;48.806;9.154;2023-04-25T04:39:35;2.70;;;2.10;;
10847;SDS011;5477;48.806;9.154;2023-04-25T04:42:10;3.23;;;1.90;;
10847;SDS011;5477;48.806;9.154;2023-04-25T04:44:48;3.77;;;2.10;;
10847;SDS011;5477;48.806;9.154;2023-04-25T04:47:41;2.53;;;2.17;;
10847;SDS011;5477;48.806;9.154;2023-04-25T04:50:14;3.40;;;2.30;;
10847;SDS011;5477;48.806;9.154;2023-04-25T04:53:03;4.57;;;2.30;;
10847;SDS011;5477;48.806;9.154;2023-04-25T04:55:40;2.73;;;2.10;;
10847;SDS011;5477;48.806;9.154;2023-04-25T04:58:25;4.70;;;2.20;;
10847;SDS011;5477;48.806;9.154;2023-04-25T05:01:08;2.80;;;2.30;;
10847;SDS011;5477;48.806;9.154;2023-04-25T05:03:58;3.83;;;2.70;;
10847;SDS011;5477;48.806;9.154;2023-04-25T05:06:45;4.77;;;2.77;;
10847;SDS011;5477;48.806;9.154;2023-04-25T05:09:43;3.43;;;2.47;;
10847;SDS011;5477;48.806;9.154;2023-04-25T05:12:32;4.97;;;2.50;;
10847;SDS011;5477;48.806;9.154;2023-04-25T05:15:14;4.23;;;2.67;;
10847;SDS011;5477;48.806;9.154;2023-04-25T05:18:00;5.87;;;2.97;;
10847;SDS011;5477;48.806;9.154;2023-04-25T05:20:37;3.17;;;2.87;;
10847;SDS011;5477;48.806;9.154;2023-04-25T05:23:26;4.10;;;2.90;;
10847;SDS011;5477;48.806;9.154;2023-04-25T05:26:18;3.27;;;2.50;;
10847;SDS011;5477;48.806;9.154;2023-04-25T05:28:53;5.90;;;2.60;;
10847;SDS011;5477;48.806;9.154;2023-04-25T05:31:52;4.00;;;2.83;;
10847;SDS011;5477;48.806;9.154;2023-04-25T05:34:20;4.37;;;3.07;;
10847;SDS011;5477;48.806;9.154;2023-04-25T05:36:55;3.50;;;2.57;;
10847;SDS011;5477;48.806;9.154;2023-04-25T05:39:24;13.20;;;3.93;;
10847;SDS011;5477;48.806;9.154;2023-04-25T05:42:12;12.37;;;3.33;;
10847;SDS011;5477;48.806;9.154;2023-04-25T05:45:06;4.23;;;3.10;;
10847;SDS011;5477;48.806;9.154;2023-04-25T05:47:53;5.17;;;2.90;;
10847;SDS011;5477;48.806;9.154;2023-04-25T05:50:42;5.10;;;2.87;;
10847;SDS011;5477;48.806;9.154;2023-04-25T05:53:33;3.37;;;3.07;;
10847;SDS011;5477;48.806;9.154;2023-04-25T05:56:02;3.40;;;2.73;;
10847;SDS011;5477;48.806;9.154;2023-04-25T05:58:31;2.87;;;2.67;;
10847;SDS011;5477;48.806;9.154;2023-04-25T06:00:59;3.50;;;2.43;;
10847;SDS011;5477;48.806;9.154;2023-04-25T06:03:27;3.73;;;2.60;;
10847;SDS011;5477;48.806;9.154;2023-04-25T06:05:57;4.47;;;3.10;;
10847;SDS011;5477;48.806;9.154;2023-04-25T06:08:25;2.90;;;2.70;;
10847;SDS011;5477;48.806;9.154;2023-04-25T06:10:53;3.33;;;2.43;;
10847;SDS011;5477;48.806;9.154;2023-04-25T06:13:22;3.50;;;2.60;;
10847;SDS011;5477;48.806;9.154;2023-04-25T06:15:51;2.67;;;2.47;;
10847;SDS011;5477;48.806;9.154;2023-04-25T06:18:19;2.70;;;2.50;;
10847;SDS011;5477;48.806;9.154;2023-04-25T06:20:48;3.43;;;2.57;;
10847;SDS011;5477;48.806;9.154;2023-04-25T06:23:17;2.60;;;2.40;;
10847;SDS011;5477;48.806;9.154;2023-04-25T06:25:51;3.70;;;2.43;;
10847;SDS011;5477;48.806;9.154;2023-04-25T06:28:20;4.00;;;2.40;;
10847;SDS011;5477;48.806;9.154;2023-04-25T06:30:49;3.07;;;2.67;;
10847;SDS011;5477;48.806;9.154;2023-04-25T06:33:19;2.87;;;2.33;;
10847;SDS011;5477;48.806;9.154;2023-04-25T06:35:48;4.27;;;2.50;;
10847;SDS011;5477;48.806;9.154;2023-04-25T06:38:21;4.83;;;2.80;;
10847;SDS011;5477;48.806;9.154;2023-04-25T06:40:51;3.10;;;2.27;;
10847;SDS011;5477;48.806;9.154;2023-04-25T06:43:19;3.00;;;2.70;;
10847;SDS011;5477;48.806;9.154;2023-04-25T06:46:09;2.90;;;2.47;;
10847;SDS011;5477;48.806;9.154;2023-04-25T06:48:43;3.33;;;2.83;;
10847;SDS011;5477;48.806;9.154;2023-04-25T06:51:11;3.30;;;3.00;;
10847;SDS011;5477;48.806;9.154;2023-04-25T06:53:41;3.60;;;3.00;;
10847;SDS011;5477;48.806;9.154;2023-04-25T06:56:20;3.33;;;3.03;;
10847;SDS011;5477;48.806;9.154;2023-04-25T06:58:56;3.43;;;3.07;;
10847;SDS011;5477;48.806;9.154;2023-04-25T07:01:37;4.63;;;3.13;;
10847;SDS011;5477;48.806;9.154;2023-04-25T07:04:18;3.33;;;2.97;;
10847;SDS011;5477;48.806;9.154;2023-04-25T07:06:50;4.27;;;3.20;;
10847;SDS011;5477;48.806;9.154;2023-04-25T07:09:23;5.57;;;3.47;;
10847;SDS011;5477;48.806;9.154;2023-04-25T07:11:51;4.77;;;3.53;;
10847;SDS011;5477;48.806;9.154;2023-04-25T07:14:19;4.40;;;3.60;;
10847;SDS011;5477;48.806;9.154;2023-04-25T07:16:49;3.50;;;3.20;;
10847;SDS011;5477;48.806;9.154;2023-04-25T07:19:18;4.50;;;3.77;;
10847;SDS011;5477;48.806;9.154;2023-04-25T07:21:46;3.30;;;3.00;;
10847;SDS011;5477;48.806;9.154;2023-04-25T07:24:14;4.67;;;3.30;;
10847;SDS011;5477;48.806;9.154;2023-04-25T07:26:45;3.47;;;3.17;;
10847;SDS011;5477;48.806;9.154;2023-04-25T07:29:29;3.80;;;3.10;;
10847;SDS011;5477;48.806;9.154;2023-04-25T07:32:00;3.73;;;3.20;;
10847;SDS011;5477;48.806;9.154;2023-04-25T07:34:28;4.37;;;3.23;;
10847;SDS011;5477;48.806;9.154;2023-04-25T07:36:57;3.57;;;3.20;;
10847;SDS011;5477;48.806;9.154;2023-04-25T07:39:33;3.40;;;3.10;;
10847;SDS011;5477;48.806;9.154;2023-04-25T07:42:01;4.47;;;3.50;;
10847;SDS011;5477;48.806;9.154;2023-04-25T07:44:30;4.67;;;3.60;;
10847;SDS011;5477;48.806;9.154;2023-04-25T07:46:58;3.53;;;3.23;;
10847;SDS011;5477;48.806;9.154;2023-04-25T07:49:31;3.60;;;3.30;;
10847;SDS011;5477;48.806;9.154;2023-04-25T07:51:58;4.13;;;3.33;;
10847;SDS011;5477;48.806;9.154;2023-04-25T07:54:27;6.53;;;3.53;;
10847;SDS011;5477;48.806;9.154;2023-04-25T07:57:01;5.63;;;3.87;;
10847;SDS011;5477;48.806;9.154;2023-04-25T07:59:30;3.60;;;2.97;;
10847;SDS011;5477;48.806;9.154;2023-04-25T08:02:00;3.80;;;3.40;;
10847;SDS011;5477;48.806;9.154;2023-04-25T08:04:30;3.50;;;3.00;;
10847;SDS011;5477;48.806;9.154;2023-04-25T08:07:03;3.43;;;3.13;;
10847;SDS011;5477;48.806;9.154;2023-04-25T08:09:40;4.23;;;3.47;;
10847;SDS011;5477;48.806;9.154;2023-04-25T08:12:15;4.23;;;3.50;;
10847;SDS011;5477;48.806;9.154;2023-04-25T08:14:43;7.30;;;3.57;;
10847;SDS011;5477;48.806;9.154;2023-04-25T08:17:11;4.07;;;3.67;;
10847;SDS011;5477;48.806;9.154;2023-04-25T08:19:42;3.47;;;3.17;;
10847;SDS011;5477;48.806;9.154;2023-04-25T08:22:20;3.93;;;3.53;;
10847;SDS011;5477;48.806;9.154;2023-04-25T08:24:53;4.40;;;3.73;;
10847;SDS011;5477;48.806;9.154;2023-04-25T08:27:21;6.67;;;3.37;;
10847;SDS011;5477;48.806;9.154;2023-04-25T08:29:50;4.57;;;3.27;;
10847;SDS011;5477;48.806;9.154;2023-04-25T08:32:19;3.83;;;3.30;;
10847;SDS011;5477;48.806;9.154;2023-04-25T08:35:10;4.93;;;3.83;;
10847;SDS011;5477;48.806;9.154;2023-04-25T08:37:38;4.63;;;3.97;;
10847;SDS011;5477;48.806;9.154;2023-04-25T08:40:14;3.97;;;3.57;;
10847;SDS011;5477;48.806;9.154;2023-04-25T08:42:53;4.93;;;3.47;;
10847;SDS011;5477;48.806;9.154;2023-04-25T08:45:22;4.37;;;3.83;;
10847;SDS011;5477;48.806;9.154;2023-04-25T08:47:51;5.27;;;3.50;;
10847;SDS011;5477;48.806;9.154;2023-04-25T08:50:21;3.70;;;3.13;;
10847;SDS011;5477;48.806;9.154;2023-04-25T08:52:53;3.53;;;3.23;;
10847;SDS011;5477;48.806;9.154;2023-04-25T08:55:21;4.00;;;3.60;;
10847;SDS011;5477;48.806;9.154;2023-04-25T08:57:55;4.07;;;3.40;;
10847;SDS011;5477;48.806;9.154;2023-04-25T09:00:25;3.70;;;3.40;;
10847;SDS011;5477;48.806;9.154;2023-04-25T09:02:55;4.97;;;3.33;;
10847;SDS011;5477;48.806;9.154;2023-04-25T09:05:29;4.00;;;3.10;;
10847;SDS011;5477;48.806;9.154;2023-04-25T09:07:59;3.27;;;2.90;;
10847;SDS011;5477;48.806;9.154;2023-04-25T09:10:28;4.93;;;2.97;;
10847;SDS011;5477;48.806;9.154;2023-04-25T09:13:03;5.10;;;3.27;;
10847;SDS011;5477;48.806;9.154;2023-04-25T09:15:49;3.80;;;3.00;;
10847;SDS011;5477;48.806;9.154;2023-04-25T09:18:45;4.33;;;3.13;;
10847;SDS011;5477;48.806;9.154;2023-04-25T09:21:16;3.23;;;2.93;;
10847;SDS011;5477;48.806;9.154;2023-04-25T09:23:46;3.20;;;2.90;;
10847;SDS011;5477;48.806;9.154;2023-04-25T09:26:19;3.73;;;2.90;;
10847;SDS011;5477;48.806;9.154;2023-04-25T09:28:49;3.33;;;3.03;;
10847;SDS011;5477;48.806;9.154;2023-04-25T09:31:34;3.13;;;2.83;;
10847;SDS011;5477;48.806;9.154;2023-04-25T09:34:04;2.77;;;2.33;;
10847;SDS011;5477;48.806;9.154;2023-04-25T09:36:42;2.47;;;2.13;;
10847;SDS011;5477;48.806;9.154;2023-04-25T09:39:22;3.80;;;1.93;;
10847;SDS011;5477;48.806;9.154;2023-04-25T09:42:00;3.17;;;2.30;;
10847;SDS011;5477;48.806;9.154;2023-04-25T09:44:30;3.63;;;2.70;;
10847;SDS011;5477;48.806;9.154;2023-04-25T09:46:58;3.10;;;2.80;;
10847;SDS011;5477;48.806;9.154;2023-04-25T09:49:28;2.70;;;2.50;;
10847;SDS011;5477;48.806;9.154;2023-04-25T09:52:04;3.27;;;2.97;;
10847;SDS011;5477;48.806;9.154;2023-04-25T09:54:46;4.30;;;3.13;;
10847;SDS011;5477;48.806;9.154;2023-04-25T09:57:21;3.50;;;2.70;;
10847;SDS011;5477;48.806;9.154;2023-04-25T09:59:51;7.17;;;4.47;;
10847;SDS011;5477;48.806;9.154;2023-04-25T10:02:22;3.67;;;2.70;;
10847;SDS011;5477;48.806;9.154;2023-04-25T10:04:55;2.40;;;2.03;;
10847;SDS011;5477;48.806;9.154;2023-04-25T10:07:30;2.67;;;2.43;;
10847;SDS011;5477;48.806;9.154;2023-04-25T10:10:01;2.40;;;1.40;;
10847;SDS011;5477;48.806;9.154;2023-04-25T10:12:31;3.53;;;1.93;;
10847;SDS011;5477;48.806;9.154;2023-04-25T10:15:00;3.67;;;2.17;;
10847;SDS011;5477;48.806;9.154;2023-04-25T10:17:30;2.87;;;2.57;;
10847;SDS011;5477;48.806;9.154;2023-04-25T10:19:59;4.07;;;3.37;;
10847;SDS011;5477;48.806;9.154;2023-04-25T10:22:32;4.17;;;3.10;;
10847;SDS011;5477;48.806;9.154;2023-04-25T10:25:02;4.07;;;1.60;;
10847;SDS011;5477;48.806;9.154;2023-04-25T10:27:32;2.17;;;1.27;;
10847;SDS011;5477;48.806;9.154;2023-04-25T10:30:02;1.67;;;1.30;;
10847;SDS011;5477;48.806;9.154;2023-04-25T10:32:31;2.07;;;1.10;;
10847;SDS011;5477;48.806;9.154;2023-04-25T10:35:09;1.87;;;1.20;;
10847;SDS011;5477;48.806;9.154;2023-04-25T10:37:40;2.30;;;1.60;;
10847;SDS011;5477;48.806;9.154;2023-04-25T10:40:24;3.03;;;2.20;;
10847;SDS011;5477;48.806;9.154;2023-04-25T10:42:52;3.00;;;2.70;;
10847;SDS011;5477;48.806;9.154;2023-04-25T10:45:21;5.73;;;4.10;;
10847;SDS011;5477;48.806;9.154;2023-04-25T10:47:49;4.23;;;3.83;;
10847;SDS011;5477;48.806;9.154;2023-04-25T10:50:17;5.07;;;4.23;;
10847;SDS011;5477;48.806;9.154;2023-04-25T10:52:46;4.70;;;4.20;;
10847;SDS011;5477;48.806;9.154;2023-04-25T10:55:15;4.70;;;4.10;;
10847;SDS011;5477;48.806;9.154;2023-04-25T10:57:43;4.90;;;4.03;;
10847;SDS011;5477;48.806;9.154;2023-04-25T11:00:15;4.97;;;3.20;;
10847;SDS011;5477;48.806;9.154;2023-04-25T11:02:45;3.77;;;3.37;;
10847;SDS011;5477;48.806;9.154;2023-04-25T11:05:19;4.63;;;4.13;;
10847;SDS011;5477;48.806;9.154;2023-04-25T11:07:51;5.10;;;4.20;;
10847;SDS011;5477;48.806;9.154;2023-04-25T11:10:32;4.13;;;3.70;;
10847;SDS011;5477;48.806;9.154;2023-04-25T11:13:02;4.63;;;3.60;;
10847;SDS011;5477;48.806;9.154;2023-04-25T11:15:30;4.20;;;3.37;;
10847;SDS011;5477;48.806;9.154;2023-04-25T11:17:58;3.00;;;2.40;;
10847;SDS011;5477;48.806;9.154;2023-04-25T11:20:27;2.57;;;2.03;;
10847;SDS011;5477;48.806;9.154;2023-04-25T11:22:58;2.03;;;1.80;;
10847;SDS011;5477;48.806;9.154;2023-04-25T11:25:27;2.07;;;1.87;;
10847;SDS011;5477;48.806;9.154;2023-04-25T11:27:58;2.03;;;1.83;;
10847;SDS011;5477;48.806;9.154;2023-04-25T11:30:27;2.73;;;1.60;;
10847;SDS011;5477;48.806;9.154;2023-04-25T11:32:56;3.83;;;1.80;;
10847;SDS011;5477;48.806;9.154;2023-04-25T11:35:25;2.27;;;1.70;;
10847;SDS011;5477;48.806;9.154;2023-04-25T11:37:53;2.07;;;1.87;;
10847;SDS011;5477;48.806;9.154;2023-04-25T11:40:22;2.50;;;1.90;;
10847;SDS011;5477;48.806;9.154;2023-04-25T11:42:50;2.00;;;1.70;;
10847;SDS011;5477;48.806;9.154;2023-04-25T11:45:20;2.03;;;1.83;;
10847;SDS011;5477;48.806;9.154;2023-04-25T11:47:50;2.60;;;2.10;;
10847;SDS011;5477;48.806;9.154;2023-04-25T11:50:19;2.30;;;2.10;;
10847;SDS011;5477;48.806;9.154;2023-04-25T11:52:47;3.17;;;2.43;;
10847;SDS011;5477;48.806;9.154;2023-04-25T11:55:16;2.70;;;2.40;;
10847;SDS011;5477;48.806;9.154;2023-04-25T11:57:47;4.10;;;3.50;;
10847;SDS011;5477;48.806;9.154;2023-04-25T12:00:17;3.50;;;3.20;;
10847;SDS011;5477;48.806;9.154;2023-04-25T12:02:47;3.63;;;3.17;;
10847;SDS011;5477;48.806;9.154;2023-04-25T12:05:19;5.50;;;3.10;;
10847;SDS011;5477;48.806;9.154;2023-04-25T12:07:53;3.40;;;3.10;;
10847;SDS011;5477;48.806;9.154;2023-04-25T12:10:21;3.73;;;3.23;;
10847;SDS011;5477;48.806;9.154;2023-04-25T12:12:53;3.90;;;3.10;;
10847;SDS011;5477;48.806;9.154;2023-04-25T12:15:23;3.93;;;3.10;;
10847;SDS011;5477;48.806;9.154;2023-04-25T12:17:53;4.20;;;3.50;;
10847;SDS011;5477;48.806;9.154;2023-04-25T12:20:24;4.57;;;3.33;;
10847;SDS011;5477;48.806;9.154;2023-04-25T12:22:52;4.53;;;3.60;;
10847;SDS011;5477;48.806;9.154;2023-04-25T12:25:34;4.27;;;3.33;;
10847;SDS011;5477;48.806;9.154;2023-04-25T12:28:15;4.30;;;3.77;;
10847;SDS011;5477;48.806;9.154;2023-04-25T12:30:52;5.07;;;4.23;;
10847;SDS011;5477;48.806;9.154;2023-04-25T12:33:26;5.67;;;4.13;;
10847;SDS011;5477;48.806;9.154;2023-04-25T12:35:56;6.03;;;4.00;;
10847;SDS011;5477;48.806;9.154;2023-04-25T12:38:25;6.37;;;4.40;;
10847;SDS011;5477;48.806;9.154;2023-04-25T12:40:55;6.50;;;4.50;;
10847;SDS011;5477;48.806;9.154;2023-04-25T12:43:25;5.37;;;4.37;;
10847;SDS011;5477;48.806;9.154;2023-04-25T12:45:54;6.77;;;4.37;;
10847;SDS011;5477;48.806;9.154;2023-04-25T12:48:22;4.60;;;4.00;;
10847;SDS011;5477;48.806;9.154;2023-04-25T12:50:51;5.97;;;4.10;;
10847;SDS011;5477;48.806;9.154;2023-04-25T12:53:19;6.97;;;4.70;;
10847;SDS011;5477;48.806;9.154;2023-04-25T12:55:48;6.40;;;4.70;;
10847;SDS011;5477;48.806;9.154;2023-04-25T12:58:17;6.63;;;4.00;;
10847;SDS011;5477;48.806;9.154;2023-04-25T13:00:47;6.40;;;4.40;;
10847;SDS011;5477;48.806;9.154;2023-04-25T13:03:15;6.03;;;4.67;;
10847;SDS011;5477;48.806;9.154;2023-04-25T13:05:44;7.53;;;4.37;;
10847;SDS011;5477;48.806;9.154;2023-04-25T13:08:12;7.37;;;4.50;;
10847;SDS011;5477;48.806;9.154;2023-04-25T13:10:40;6.83;;;4.37;;
10847;SDS011;5477;48.806;9.154;2023-04-25T13:13:08;5.57;;;4.27;;
10847;SDS011;5477;48.806;9.154;2023-04-25T13:15:36;6.23;;;4.67;;
10847;SDS011;5477;48.806;9.154;2023-04-25T13:18:05;5.20;;;4.70;;
10847;SDS011;5477;48.806;9.154;2023-04-25T13:20:34;5.63;;;4.40;;
10847;SDS011;5477;48.806;9.154;2023-04-25T13:23:02;5.83;;;4.50;;
10847;SDS011;5477;48.806;9.154;2023-04-25T13:25:29;8.23;;;5.30;;
10847;SDS011;5477;48.806;9.154;2023-04-25T13:27:57;7.90;;;5.43;;
10847;SDS011;5477;48.806;9.154;2023-04-25T13:30:25;7.07;;;4.97;;
10847;SDS011;5477;48.806;9.154;2023-04-25T13:32:53;7.27;;;5.30;;
10847;SDS011;5477;48.806;9.154;2023-04-25T13:35:24;8.07;;;5.60;;
10847;SDS011;5477;48.806;9.154;2023-04-25T13:37:52;7.60;;;5.77;;
10847;SDS011;5477;48.806;9.154;2023-04-25T13:40:20;6.73;;;6.03;;
10847;SDS011;5477;48.806;9.154;2023-04-25T13:42:50;8.73;;;6.90;;
10847;SDS011;5477;48.806;9.154;2023-04-25T13:45:19;10.40;;;7.37;;
10847;SDS011;5477;48.806;9.154;2023-04-25T13:47:47;10.03;;;6.90;;
10847;SDS011;5477;48.806;9.154;2023-04-25T13:50:15;9.37;;;6.73;;
10847;SDS011;5477;48.806;9.154;2023-04-25T13:52:44;7.53;;;6.57;;
10847;SDS011;5477;48.806;9.154;2023-04-25T13:55:13;9.23;;;7.23;;
10847;SDS011;5477;48.806;9.154;2023-04-25T13:57:41;8.43;;;6.60;;
10847;SDS011;5477;48.806;9.154;2023-04-25T14:00:10;7.20;;;6.17;;
10847;SDS011;5477;48.806;9.154;2023-04-25T14:02:39;7.80;;;6.73;;
10847;SDS011;5477;48.806;9.154;2023-04-25T14:05:07;10.57;;;6.30;;
10847;SDS011;5477;48.806;9.154;2023-04-25T14:07:36;9.37;;;7.07;;
10847;SDS011;5477;48.806;9.154;2023-04-25T14:10:06;10.00;;;6.30;;
10847;SDS011;5477;48.806;9.154;2023-04-25T14:12:34;7.93;;;6.33;;
10847;SDS011;5477;48.806;9.154;2023-04-25T14:15:03;7.33;;;5.80;;
10847;SDS011;5477;48.806;9.154;2023-04-25T14:17:31;8.77;;;5.47;;
10847;SDS011;5477;48.806;9.154;2023-04-25T14:19:59;6.37;;;5.20;;
10847;SDS011;5477;48.806;9.154;2023-04-25T14:22:27;5.77;;;5.13;;
10847;SDS011;5477;48.806;9.154;2023-04-25T14:24:55;5.17;;;4.10;;
10847;SDS011;5477;48.806;9.154;2023-04-25T14:27:25;6.07;;;4.90;;
10847;SDS011;5477;48.806;9.154;2023-04-25T14:29:54;4.97;;;4.10;;
10847;SDS011;5477;48.806;9.154;2023-04-25T14:32:22;5.37;;;4.30;;
10847;SDS011;5477;48.806;9.154;2023-04-25T14:34:50;5.80;;;4.47;;
10847;SDS011;5477;48.806;9.154;2023-04-25T14:37:18;5.23;;;4.13;;
10847;SDS011;5477;48.806;9.154;2023-04-25T14:39:46;5.23;;;4.50;;
10847;SDS011;5477;48.806;9.154;2023-04-25T14:42:14;4.33;;;3.70;;
10847;SDS011;5477;48.806;9.154;2023-04-25T14:44:43;4.90;;;4.07;;
10847;SDS011;5477;48.806;9.154;2023-04-25T14:47:11;5.33;;;3.80;;
10847;SDS011;5477;48.806;9.154;2023-04-25T14:49:39;6.07;;;4.27;;
10847;SDS011;5477;48.806;9.154;2023-04-25T14:52:07;5.07;;;4.50;;
10847;SDS011;5477;48.806;9.154;2023-04-25T14:54:35;6.50;;;4.87;;
10847;SDS011;5477;48.806;9.154;2023-04-25T14:57:03;6.63;;;4.50;;
10847;SDS011;5477;48.806;9.154;2023-04-25T14:59:31;6.00;;;5.00;;
10847;SDS011;5477;48.806;9.154;2023-04-25T15:02:01;6.33;;;4.73;;
10847;SDS011;5477;48.806;9.154;2023-04-25T15:04:29;6.90;;;5.13;;
10847;SDS011;5477;48.806;9.154;2023-04-25T15:06:57;7.10;;;4.80;;
10847;SDS011;5477;48.806;9.154;2023-04-25T15:09:25;6.63;;;4.53;;
10847;SDS011;5477;48.806;9.154;2023-04-25T15:11:55;6.53;;;4.87;;
10847;SDS011;5477;48.806;9.154;2023-04-25T15:14:23;6.10;;;4.77;;
10847;SDS011;5477;48.806;9.154;2023-04-25T15:16:51;6.93;;;4.97;;
10847;SDS011;5477;48.806;9.154;2023-04-25T15:19:21;5.90;;;4.73;;
10847;SDS011;5477;48.806;9.154;2023-04-25T15:21:49;6.87;;;5.00;;
10847;SDS011;5477;48.806;9.154;2023-04-25T15:24:17;5.43;;;4.50;;
10847;SDS011;5477;48.806;9.154;2023-04-25T15:26:45;6.97;;;4.73;;